createdAt,value
2023-04-11T00:00:59.021Z,9.58
2023-04-11T00:03:27.570Z,9.98
2023-04-11T00:05:55.733Z,9.90
2023-04-11T00:08:23.528Z,9.82
2023-04-11T00:10:51.352Z,9.53
2023-04-11T00:13:20.600Z,9.63
2023-04-11T00:15:48.795Z,9.81
2023-04-11T00:18:18.406Z,9.89
2023-04-11T00:20:46.179Z,10.00
2023-04-11T00:23:14.179Z,10.06
2023-04-11T00:25:42.101Z,10.08
2023-04-11T00:28:11.473Z,9.92
2023-04-11T00:30:39.663Z,10.12
2023-04-11T00:33:07.471Z,9.90
2023-04-11T00:35:37.972Z,9.93
2023-04-11T00:38:05.877Z,9.84
2023-04-11T00:40:33.667Z,9.86
2023-04-11T00:43:01.662Z,9.86
2023-04-11T00:45:29.504Z,9.78
2023-04-11T00:47:58.062Z,9.66
2023-04-11T00:50:26.061Z,9.61
2023-04-11T00:52:58.412Z,9.69
2023-04-11T00:55:27.322Z,9.30
2023-04-11T00:57:55.848Z,9.29
2023-04-11T01:00:24.723Z,9.25
2023-04-11T01:02:52.728Z,9.36
2023-04-11T01:05:22.403Z,9.44
2023-04-11T01:07:55.744Z,9.15
2023-04-11T01:10:28.814Z,9.22
2023-04-11T01:12:58.495Z,9.27
2023-04-11T01:15:26.613Z,9.21
2023-04-11T01:17:55.455Z,9.34
2023-04-11T01:20:23.770Z,9.19
2023-04-11T01:22:52.426Z,9.24
2023-04-11T01:25:22.613Z,9.20
2023-04-11T01:27:50.589Z,9.34
2023-04-11T01:30:18.425Z,9.31
2023-04-11T01:32:46.316Z,9.32
2023-04-11T01:35:14.473Z,9.10
2023-04-11T01:37:42.444Z,9.34
2023-04-11T01:40:11.155Z,9.35
2023-04-11T01:42:40.781Z,9.19
2023-04-11T01:45:13.042Z,9.20
2023-04-11T01:47:41.141Z,9.39
2023-04-11T01:50:10.156Z,9.23
2023-04-11T01:52:37.886Z,9.37
2023-04-11T01:55:07.292Z,9.30
2023-04-11T01:57:35.153Z,9.45
2023-04-11T02:00:06.002Z,9.41
2023-04-11T02:02:33.993Z,9.47
2023-04-11T02:05:02.058Z,9.28
2023-04-11T02:07:29.886Z,9.34
2023-04-11T02:09:59.317Z,9.55
2023-04-11T02:12:27.483Z,9.42
2023-04-11T02:14:55.370Z,9.38
2023-04-11T02:17:26.483Z,9.39
2023-04-11T02:19:54.639Z,9.19
2023-04-11T02:22:22.440Z,9.30
2023-04-11T02:24:51.241Z,9.12
2023-04-11T02:27:19.077Z,9.35
2023-04-11T02:29:46.852Z,9.04
2023-04-11T02:32:15.095Z,9.10
2023-04-11T02:34:44.342Z,9.05
2023-04-11T02:37:12.234Z,9.05
2023-04-11T02:39:40.110Z,9.00
2023-04-11T02:42:07.864Z,9.06
2023-04-11T02:44:36.404Z,8.93
2023-04-11T02:47:04.250Z,8.76
2023-04-11T02:49:32.241Z,8.95
2023-04-11T02:52:01.360Z,8.89
2023-04-11T02:54:29.172Z,9.04
2023-04-11T02:56:56.915Z,8.82
2023-04-11T02:59:24.839Z,8.87
2023-04-11T03:01:59.179Z,8.80
2023-04-11T03:04:27.915Z,8.87
2023-04-11T03:06:56.563Z,9.01
2023-04-11T03:09:26.380Z,9.06
2023-04-11T03:11:54.223Z,9.11
2023-04-11T03:14:22.074Z,8.78
2023-04-11T03:16:49.950Z,8.85
2023-04-11T03:19:17.691Z,8.92
2023-04-11T03:21:45.525Z,8.89
2023-04-11T03:24:13.542Z,9.10
2023-04-11T03:26:42.713Z,9.12
2023-04-11T03:29:10.510Z,9.11
2023-04-11T03:31:38.379Z,9.15
2023-04-11T03:34:07.392Z,9.04
2023-04-11T03:36:35.472Z,9.25
2023-04-11T03:39:04.026Z,9.39
2023-04-11T03:41:31.823Z,9.26
2023-04-11T03:44:00.934Z,9.18
2023-04-11T03:46:28.808Z,8.97
2023-04-11T03:48:57.136Z,9.04
2023-04-11T03:51:26.543Z,9.42
2023-04-11T03:53:54.525Z,9.26
2023-04-11T03:56:22.363Z,9.25
2023-04-11T03:58:50.364Z,9.62
2023-04-11T04:01:19.520Z,9.38
2023-04-11T04:03:48.993Z,9.56
2023-04-11T04:06:16.945Z,9.36
2023-04-11T04:08:44.743Z,9.49
2023-04-11T04:11:13.943Z,9.61
2023-04-11T04:13:41.845Z,9.44
2023-04-11T04:16:10.595Z,9.49
2023-04-11T04:18:39.850Z,9.67
2023-04-11T04:21:08.591Z,9.33
2023-04-11T04:23:39.101Z,9.48
2023-04-11T04:26:07.547Z,9.36
2023-04-11T04:28:36.992Z,9.66
2023-04-11T04:31:05.435Z,9.41
2023-04-11T04:33:33.365Z,9.38
2023-04-11T04:36:04.186Z,9.32
2023-04-11T04:38:32.953Z,9.52
2023-04-11T04:41:00.741Z,9.29
2023-04-11T04:43:32.340Z,9.30
2023-04-11T04:46:00.343Z,9.39
2023-04-11T04:48:28.191Z,9.34
2023-04-11T04:50:56.072Z,9.31
2023-04-11T04:53:25.339Z,9.35
2023-04-11T04:55:53.390Z,9.19
2023-04-11T04:58:21.153Z,9.41
2023-04-11T05:00:55.853Z,9.32
2023-04-11T05:03:24.204Z,9.21
2023-04-11T05:05:52.198Z,9.32
2023-04-11T05:08:21.533Z,9.40
2023-04-11T05:10:50.741Z,9.26
2023-04-11T05:13:18.791Z,9.20
2023-04-11T05:15:49.335Z,9.34
2023-04-11T05:18:17.493Z,9.51
2023-04-11T05:20:45.442Z,9.27
2023-04-11T05:23:13.349Z,9.59
2023-04-11T05:25:41.286Z,9.55
2023-04-11T05:28:10.472Z,9.39
2023-04-11T05:30:38.255Z,9.21
2023-04-11T05:33:06.194Z,9.54
2023-04-11T05:35:34.663Z,9.43
2023-04-11T05:38:02.526Z,9.47
2023-04-11T05:40:30.335Z,9.69
2023-04-11T05:42:58.194Z,9.45
2023-04-11T05:45:27.417Z,9.32
2023-04-11T05:47:56.618Z,9.35
2023-04-11T05:50:25.119Z,9.25
2023-04-11T05:52:52.996Z,9.38
2023-04-11T05:55:20.843Z,9.83
2023-04-11T05:57:48.677Z,9.58
2023-04-11T06:00:18.301Z,9.44
2023-04-11T06:02:49.219Z,9.50
2023-04-11T06:05:17.908Z,9.61
2023-04-11T06:07:46.614Z,9.62
2023-04-11T06:10:14.888Z,9.71
2023-04-11T06:12:42.759Z,9.88
2023-04-11T06:15:13.784Z,9.54
2023-04-11T06:17:41.850Z,9.69
2023-04-11T06:20:11.920Z,9.83
2023-04-11T06:22:40.108Z,9.68
2023-04-11T06:25:09.996Z,9.58
2023-04-11T06:27:38.086Z,9.51
2023-04-11T06:30:08.906Z,9.54
2023-04-11T06:32:36.740Z,9.90
2023-04-11T06:35:05.297Z,9.66
2023-04-11T06:37:34.581Z,9.70
2023-04-11T06:40:02.494Z,9.81
2023-04-11T06:42:30.546Z,9.55
2023-04-11T06:44:58.432Z,9.71
2023-04-11T06:47:26.667Z,9.66
2023-04-11T06:49:55.513Z,9.71
2023-04-11T06:52:25.787Z,9.87
2023-04-11T06:54:56.182Z,10.31
2023-04-11T06:57:24.265Z,10.29
2023-04-11T06:59:52.586Z,9.92
2023-04-11T07:02:21.989Z,10.12
2023-04-11T07:04:50.060Z,9.88
2023-04-11T07:07:17.991Z,9.52
2023-04-11T07:09:47.140Z,10.03
2023-04-11T07:12:16.763Z,9.79
2023-04-11T07:14:45.146Z,10.44
2023-04-11T07:17:13.224Z,10.69
2023-04-11T07:19:41.549Z,11.35
2023-04-11T07:22:11.040Z,11.92
2023-04-11T07:24:38.951Z,12.03
2023-04-11T07:27:06.984Z,12.32
2023-04-11T07:29:37.187Z,12.72
2023-04-11T07:32:06.333Z,12.72
2023-04-11T07:34:35.396Z,13.23
2023-04-11T07:37:03.657Z,13.36
2023-04-11T07:39:31.679Z,13.01
2023-04-11T07:41:59.569Z,13.95
2023-04-11T07:44:27.476Z,13.42
2023-04-11T07:46:57.344Z,13.11
2023-04-11T07:49:25.291Z,12.55
2023-04-11T07:51:53.013Z,12.59
2023-04-11T07:54:21.071Z,13.20
2023-04-11T07:56:48.869Z,13.38
2023-04-11T07:59:17.483Z,12.64
2023-04-11T08:01:45.604Z,13.18
2023-04-11T08:04:15.320Z,13.49
2023-04-11T08:06:43.840Z,13.82
2023-04-11T08:09:11.575Z,13.53
2023-04-11T08:11:40.864Z,13.00
2023-04-11T08:14:09.179Z,13.19
2023-04-11T08:16:37.183Z,12.59
2023-04-11T08:19:05.124Z,12.67
2023-04-11T08:21:34.527Z,13.08
2023-04-11T08:24:02.320Z,13.37
2023-04-11T08:26:30.298Z,13.08
2023-04-11T08:28:58.093Z,13.02
2023-04-11T08:31:26.896Z,13.56
2023-04-11T08:33:56.185Z,14.23
2023-04-11T08:36:25.703Z,13.76
2023-04-11T08:38:56.697Z,13.22
2023-04-11T08:41:24.938Z,13.39
2023-04-11T08:43:53.327Z,13.54
2023-04-11T08:46:21.296Z,13.12
2023-04-11T08:48:49.480Z,12.88
2023-04-11T08:51:23.972Z,12.86
2023-04-11T08:53:59.693Z,12.67
2023-04-11T08:56:27.930Z,13.51
2023-04-11T08:58:55.843Z,12.68
2023-04-11T09:01:29.638Z,12.85
2023-04-11T09:03:58.057Z,13.57
2023-04-11T09:06:30.615Z,13.88
2023-04-11T09:09:02.254Z,13.59
2023-04-11T09:11:30.150Z,12.98
2023-04-11T09:14:08.420Z,14.47
2023-04-11T09:16:37.001Z,15.10
2023-04-11T09:19:04.989Z,15.79
2023-04-11T09:21:49.111Z,17.00
2023-04-11T09:24:19.778Z,16.18
2023-04-11T09:26:47.621Z,16.20
2023-04-11T09:29:37.886Z,16.24
2023-04-11T09:32:06.176Z,15.79
2023-04-11T09:34:39.137Z,15.74
2023-04-11T09:37:08.556Z,14.99
2023-04-11T09:39:37.756Z,14.92
2023-04-11T09:42:25.480Z,14.78
2023-04-11T09:44:54.190Z,14.06
2023-04-11T09:47:22.712Z,14.74
2023-04-11T09:49:52.815Z,15.19
2023-04-11T09:52:21.748Z,14.41
2023-04-11T09:54:52.809Z,14.28
2023-04-11T09:57:24.224Z,13.73
2023-04-11T09:59:54.428Z,13.72
2023-04-11T10:02:22.308Z,13.46
2023-04-11T10:04:51.525Z,14.63
2023-04-11T10:07:21.403Z,15.90
2023-04-11T10:09:51.869Z,16.31
2023-04-11T10:12:32.602Z,16.64
2023-04-11T10:15:08.582Z,16.39
2023-04-11T10:17:37.483Z,17.45
2023-04-11T10:20:46.854Z,17.49
2023-04-11T10:23:16.492Z,16.53
2023-04-11T10:26:10.614Z,17.40
2023-04-11T10:28:40.619Z,18.01
2023-04-11T10:31:13.519Z,17.64
2023-04-11T10:34:12.691Z,17.53
2023-04-11T10:37:04.646Z,17.48
2023-04-11T10:40:09.819Z,16.81
2023-04-11T10:42:43.479Z,16.45
2023-04-11T10:45:28.991Z,17.17
2023-04-11T10:48:07.604Z,17.82
2023-04-11T10:50:40.931Z,18.04
2023-04-11T10:53:14.220Z,17.69
2023-04-11T10:55:48.719Z,18.63
2023-04-11T10:58:21.641Z,17.23
2023-04-11T11:01:31.213Z,16.90
2023-04-11T11:04:01.031Z,17.38
2023-04-11T11:06:29.144Z,17.53
2023-04-11T11:08:57.887Z,16.57
2023-04-11T11:11:25.685Z,16.43
2023-04-11T11:13:57.141Z,16.85
2023-04-11T11:16:27.186Z,17.14
2023-04-11T11:18:59.098Z,17.93
2023-04-11T11:24:24.804Z,17.45
2023-04-11T11:26:54.613Z,17.21
2023-04-11T11:29:33.862Z,16.79
2023-04-11T11:32:04.170Z,16.70
2023-04-11T11:34:34.333Z,17.49
2023-04-11T11:37:05.287Z,17.31
2023-04-11T11:39:35.353Z,16.75
2023-04-11T11:42:03.514Z,17.99
2023-04-11T11:44:32.995Z,18.98
2023-04-11T11:47:06.221Z,18.34
2023-04-11T11:49:48.856Z,18.83
2023-04-11T11:52:33.813Z,19.09
2023-04-11T11:55:03.212Z,18.24
2023-04-11T11:57:31.220Z,17.59
2023-04-11T12:00:06.473Z,17.55
2023-04-11T12:02:36.618Z,18.13
2023-04-11T12:05:07.877Z,18.04
2023-04-11T12:07:39.538Z,17.51
2023-04-11T12:10:11.838Z,15.91
2023-04-11T12:12:42.067Z,16.44
2023-04-11T12:15:14.762Z,15.90
2023-04-11T12:17:43.259Z,16.77
2023-04-11T12:20:11.969Z,16.69
2023-04-11T12:22:40.404Z,16.28
2023-04-11T12:25:10.307Z,16.23
2023-04-11T12:27:39.960Z,16.14
2023-04-11T12:30:09.579Z,16.16
2023-04-11T12:32:39.566Z,15.77
2023-04-11T12:35:08.826Z,15.50
2023-04-11T12:37:36.716Z,16.43
2023-04-11T12:40:11.013Z,17.11
2023-04-11T12:42:49.534Z,16.82
2023-04-11T12:45:24.627Z,16.51
2023-04-11T12:47:54.408Z,16.35
2023-04-11T12:50:24.106Z,16.49
2023-04-11T12:52:52.445Z,17.77
2023-04-11T12:55:22.448Z,18.41
2023-04-11T12:57:50.337Z,17.73
2023-04-11T13:00:20.423Z,17.06
2023-04-11T13:02:48.689Z,16.64
2023-04-11T13:05:18.644Z,16.66
2023-04-11T13:07:47.036Z,16.54
2023-04-11T13:10:18.552Z,16.29
2023-04-11T13:12:48.477Z,16.60
2023-04-11T13:15:17.580Z,16.31
2023-04-11T13:17:45.667Z,16.92
2023-04-11T13:20:14.348Z,18.10
2023-04-11T13:22:44.286Z,18.24
2023-04-11T13:25:12.961Z,18.68
2023-04-11T13:27:42.448Z,18.74
2023-04-11T13:30:11.826Z,17.83
2023-04-11T13:32:40.130Z,18.14
2023-04-11T13:35:09.629Z,19.11
2023-04-11T13:37:37.484Z,19.71
2023-04-11T13:40:11.124Z,19.63
2023-04-11T13:42:38.905Z,20.00
2023-04-11T13:45:08.090Z,19.45
2023-04-11T13:47:38.380Z,18.60
2023-04-11T13:50:09.514Z,18.70
2023-04-11T13:52:37.480Z,17.77
2023-04-11T13:55:07.747Z,17.26
2023-04-11T13:57:36.135Z,17.95
2023-04-11T14:00:12.100Z,17.35
2023-04-11T14:02:41.123Z,16.87
2023-04-11T14:05:11.686Z,16.73
2023-04-11T14:07:39.512Z,16.58
2023-04-11T14:10:09.938Z,16.52
2023-04-11T14:12:42.432Z,16.39
2023-04-11T14:15:12.208Z,16.43
2023-04-11T14:17:40.120Z,16.64
2023-04-11T14:20:09.679Z,16.56
2023-04-11T14:22:38.558Z,16.26
2023-04-11T14:25:11.512Z,15.95
2023-04-11T14:27:42.070Z,15.72
2023-04-11T14:30:12.095Z,16.43
2023-04-11T14:32:39.998Z,16.17
2023-04-11T14:35:09.921Z,16.44
2023-04-11T14:37:38.519Z,16.27
2023-04-11T14:40:11.236Z,15.83
2023-04-11T14:42:40.938Z,15.80
2023-04-11T14:45:09.768Z,16.27
2023-04-11T14:47:39.731Z,15.72
2023-04-11T14:50:09.523Z,16.08
2023-04-11T14:52:37.400Z,16.08
2023-04-11T14:55:06.401Z,15.91
2023-04-11T14:57:47.026Z,15.79
2023-04-11T15:00:20.889Z,15.83
2023-04-11T15:02:52.478Z,15.82
2023-04-11T15:05:21.147Z,15.63
2023-04-11T15:07:51.722Z,15.84
2023-04-11T15:10:22.349Z,15.14
2023-04-11T15:12:51.704Z,15.57
2023-04-11T15:15:19.599Z,15.66
2023-04-11T15:17:49.679Z,15.68
2023-04-11T15:20:19.788Z,15.74
2023-04-11T15:22:48.741Z,15.83
2023-04-11T15:25:17.228Z,15.93
2023-04-11T15:27:45.275Z,15.76
2023-04-11T15:30:15.269Z,15.50
2023-04-11T15:32:45.005Z,15.47
2023-04-11T15:35:13.166Z,15.52
2023-04-11T15:37:41.498Z,15.13
2023-04-11T15:40:12.281Z,15.59
2023-04-11T15:42:40.625Z,15.54
2023-04-11T15:45:09.643Z,15.45
2023-04-11T15:47:39.121Z,15.52
2023-04-11T15:50:08.226Z,15.11
2023-04-11T15:52:36.195Z,15.31
2023-04-11T15:55:04.748Z,15.63
2023-04-11T15:57:33.318Z,15.50
2023-04-11T16:00:01.521Z,15.46
2023-04-11T16:02:29.668Z,15.41
2023-04-11T16:05:01.306Z,15.37
2023-04-11T16:07:30.057Z,15.44
2023-04-11T16:09:58.187Z,15.39
2023-04-11T16:12:26.186Z,14.93
2023-04-11T16:14:54.033Z,15.02
2023-04-11T16:17:21.823Z,15.15
2023-04-11T16:19:53.324Z,15.13
2023-04-11T16:22:22.532Z,15.20
2023-04-11T16:24:50.730Z,15.35
2023-04-11T16:27:19.696Z,15.09
2023-04-11T16:29:47.651Z,15.07
2023-04-11T16:32:15.563Z,15.05
2023-04-11T16:34:43.412Z,14.88
2023-04-11T16:37:11.210Z,14.79
2023-04-11T16:39:40.415Z,15.28
2023-04-11T16:42:08.330Z,14.84
2023-04-11T16:44:36.435Z,14.61
2023-04-11T16:47:04.602Z,14.89
2023-04-11T16:49:32.699Z,14.79
2023-04-11T16:52:00.717Z,14.68
2023-04-11T16:54:28.505Z,14.57
2023-04-11T16:56:57.708Z,14.57
2023-04-11T16:59:25.548Z,14.87
2023-04-11T17:01:53.545Z,14.63
2023-04-11T17:04:21.524Z,14.86
2023-04-11T17:06:49.582Z,15.04
2023-04-11T17:09:17.569Z,14.96
2023-04-11T17:11:45.316Z,15.06
2023-04-11T17:14:14.527Z,14.77
2023-04-11T17:16:43.432Z,14.78
2023-04-11T17:19:11.413Z,14.44
2023-04-11T17:21:40.048Z,14.61
2023-04-11T17:24:08.404Z,14.59
2023-04-11T17:26:36.258Z,14.55
2023-04-11T17:29:06.559Z,14.57
2023-04-11T17:31:36.125Z,14.78
2023-04-11T17:34:04.441Z,14.29
2023-04-11T17:36:32.410Z,14.33
2023-04-11T17:39:00.250Z,14.16
2023-04-11T17:41:28.376Z,14.20
2023-04-11T17:43:57.385Z,14.28
2023-04-11T17:46:26.003Z,14.73
2023-04-11T17:48:55.460Z,14.46
2023-04-11T17:51:23.246Z,13.67
2023-04-11T17:53:51.116Z,13.87
2023-04-11T17:56:19.992Z,13.67
2023-04-11T17:58:48.275Z,13.68
2023-04-11T18:01:16.211Z,13.99
2023-04-11T18:03:44.370Z,13.94
2023-04-11T18:06:13.615Z,13.99
2023-04-11T18:11:12.143Z,13.85
2023-04-11T18:13:39.938Z,13.42
2023-04-11T18:16:08.131Z,13.77
2023-04-11T18:18:36.759Z,13.56
2023-04-11T18:21:07.550Z,13.57
2023-04-11T18:23:37.164Z,13.33
2023-04-11T18:26:05.162Z,13.45
2023-04-11T18:28:33.011Z,13.71
2023-04-11T18:31:01.488Z,13.83
2023-04-11T18:33:29.474Z,13.73
2023-04-11T18:36:02.923Z,13.58
2023-04-11T18:38:31.091Z,13.52
2023-04-11T18:41:04.533Z,13.67
2023-04-11T18:43:34.932Z,13.46
2023-04-11T18:46:02.725Z,13.62
2023-04-11T18:48:31.618Z,13.71
2023-04-11T18:51:00.918Z,13.75
2023-04-11T18:53:30.038Z,13.76
2023-04-11T18:55:58.065Z,13.62
2023-04-11T18:58:30.092Z,13.80
2023-04-11T19:00:58.678Z,13.80
2023-04-11T19:03:26.877Z,13.99
2023-04-11T19:05:55.429Z,13.99
2023-04-11T19:08:23.583Z,13.99
2023-04-11T19:10:52.322Z,14.08
2023-04-11T19:13:20.130Z,13.99
2023-04-11T19:15:49.380Z,13.96
2023-04-11T19:18:19.424Z,13.81
2023-04-11T19:20:47.254Z,13.77
2023-04-11T19:23:15.733Z,13.75
2023-04-11T19:25:43.871Z,13.70
2023-04-11T19:28:11.718Z,13.55
2023-04-11T19:30:40.659Z,13.42
2023-04-11T19:33:09.941Z,13.48
2023-04-11T19:35:40.210Z,13.48
2023-04-11T19:38:08.040Z,13.31
2023-04-11T19:40:36.415Z,13.28
2023-04-11T19:43:04.523Z,13.12
2023-04-11T19:45:32.753Z,12.93
2023-04-11T19:48:00.785Z,12.80
2023-04-11T19:50:30.932Z,12.86
2023-04-11T19:53:01.327Z,12.90
2023-04-11T19:55:29.234Z,12.78
2023-04-11T19:58:00.395Z,12.74
2023-04-11T20:00:31.984Z,12.66
2023-04-11T20:02:59.931Z,12.59
2023-04-11T20:05:31.918Z,12.64
2023-04-11T20:07:59.897Z,12.73
2023-04-11T20:10:29.264Z,12.67
2023-04-11T20:12:57.205Z,12.57
2023-04-11T20:15:25.489Z,12.49
2023-04-11T20:17:53.304Z,12.64
2023-04-11T20:20:22.046Z,12.62
2023-04-11T20:22:51.480Z,12.67
2023-04-11T20:25:19.922Z,12.43
2023-04-11T20:27:48.520Z,12.65
2023-04-11T20:30:17.409Z,12.48
2023-04-11T20:32:45.767Z,12.58
2023-04-11T20:35:15.474Z,12.42
2023-04-11T20:37:44.274Z,12.32
2023-04-11T20:40:15.050Z,12.23
2023-04-11T20:42:45.433Z,12.29
2023-04-11T20:45:16.194Z,12.36
2023-04-11T20:47:46.207Z,12.45
2023-04-11T20:50:15.761Z,12.30
2023-04-11T20:52:46.735Z,12.13
2023-04-11T20:55:16.160Z,12.07
2023-04-11T20:57:44.655Z,12.33
2023-04-11T21:00:14.728Z,12.10
2023-04-11T21:02:45.950Z,12.26
2023-04-11T21:05:15.296Z,11.79
2023-04-11T21:07:44.183Z,11.85
2023-04-11T21:10:13.008Z,11.88
2023-04-11T21:12:42.967Z,11.60
2023-04-11T21:15:11.828Z,11.68
2023-04-11T21:17:40.557Z,11.86
2023-04-11T21:20:17.751Z,11.78
2023-04-11T21:22:46.458Z,12.07
2023-04-11T21:25:15.971Z,11.89
2023-04-11T21:27:45.792Z,11.71
2023-04-11T21:30:15.514Z,11.84
2023-04-11T21:32:43.463Z,11.65
2023-04-11T21:35:12.773Z,11.74
2023-04-11T21:37:40.610Z,11.78
2023-04-11T21:40:09.828Z,11.70
2023-04-11T21:42:37.829Z,11.90
2023-04-11T21:45:09.435Z,11.97
2023-04-11T21:47:37.440Z,11.79
2023-04-11T21:50:05.993Z,11.87
2023-04-11T21:52:34.589Z,11.98
2023-04-11T21:55:05.396Z,12.15
2023-04-11T21:57:35.017Z,11.82
2023-04-11T22:00:03.888Z,12.10
2023-04-11T22:02:33.161Z,12.29
2023-04-11T22:05:06.367Z,12.37
2023-04-11T22:07:39.385Z,12.13
2023-04-11T22:10:12.108Z,12.02
2023-04-11T22:12:40.533Z,12.01
2023-04-11T22:15:12.618Z,12.16
2023-04-11T22:17:43.572Z,12.01
2023-04-11T22:20:13.448Z,12.05
2023-04-11T22:22:42.081Z,12.09
2023-04-11T22:25:11.533Z,12.18
2023-04-11T22:27:44.715Z,12.07
2023-04-11T22:30:15.128Z,11.91
2023-04-11T22:32:44.349Z,11.93
2023-04-11T22:35:13.624Z,12.01
2023-04-11T22:37:41.538Z,12.06
2023-04-11T22:40:13.586Z,12.12
2023-04-11T22:42:41.667Z,12.00
2023-04-11T22:45:11.156Z,11.95
2023-04-11T22:47:40.201Z,11.82
2023-04-11T22:50:10.964Z,11.90
2023-04-11T22:52:41.867Z,11.80
2023-04-11T22:55:11.823Z,11.55
2023-04-11T22:57:40.981Z,11.48
2023-04-11T23:00:12.201Z,11.36
2023-04-11T23:02:40.327Z,11.65
2023-04-11T23:05:11.019Z,11.62
2023-04-11T23:07:38.966Z,11.64
2023-04-11T23:10:08.996Z,11.45
2023-04-11T23:12:37.122Z,11.49
2023-04-11T23:15:05.870Z,11.75
2023-04-11T23:17:34.174Z,11.72
2023-04-11T23:20:06.278Z,11.67
2023-04-11T23:22:35.772Z,11.67
2023-04-11T23:25:04.620Z,11.53
2023-04-11T23:27:33.267Z,11.44
2023-04-11T23:30:01.805Z,11.66
2023-04-11T23:32:29.604Z,11.71
2023-04-11T23:34:57.496Z,11.56
2023-04-11T23:37:27.228Z,11.60
2023-04-11T23:39:57.081Z,11.76
2023-04-11T23:42:24.942Z,11.74
2023-04-11T23:44:53.131Z,11.61
2023-04-11T23:47:20.990Z,11.59
2023-04-11T23:49:48.935Z,11.64
2023-04-11T23:52:16.741Z,11.88
2023-04-11T23:54:44.690Z,11.83
2023-04-11T23:57:13.923Z,11.85
2023-04-11T23:59:41.999Z,11.71
